Time;durP1;ratioP1;P1;durP2;ratioP2;P2;SDS_P1;SDS_P2;PMS_P1;PMS_P2;Temp;Humidity;BMP_temperature;BMP_pressure;BME280_temperature;BME280_humidity;BME280_pressure;Samples;Min_cycle;Max_cycle;Signal;HPM_P1;HPM_P2
2021/01/27 00:00:52;;;;;;;5.00;3.65;;;;;;;-1.16;70.26;97244.02;1702414;84;21577;-65
2021/01/27 00:03:20;;;;;;;5.97;3.10;;;;;;;-1.20;70.56;97237.47;1702442;84;21584;-64
2021/01/27 00:05:51;;;;;;;5.20;3.72;;;;;;;-1.24;71.58;97246.64;1703309;83;21113;-68
2021/01/27 00:08:22;;;;;;;4.90;3.33;;;;;;;-1.26;71.57;97246.75;1703289;84;21145;-63
2021/01/27 00:10:50;;;;;;;6.60;3.80;;;;;;;-1.28;70.96;97246.45;1702842;84;21157;-66
2021/01/27 00:13:20;;;;;;;5.42;2.70;;;;;;;-1.30;71.09;97239.36;1702468;84;21175;-64
2021/01/27 00:15:49;;;;;;;5.62;3.05;;;;;;;-1.38;72.50;97232.16;1702430;84;21185;-64
2021/01/27 00:18:20;;;;;;;5.97;3.72;;;;;;;-1.37;71.73;97242.72;1702463;84;21208;-66
2021/01/27 00:20:50;;;;;;;5.03;3.92;;;;;;;-1.35;72.04;97242.61;1693014;84;21172;-66
2021/01/27 00:23:19;;;;;;;6.75;2.45;;;;;;;-1.37;71.84;97246.98;1690247;85;21145;-66
2021/01/27 00:25:48;;;;;;;4.22;3.27;;;;;;;-1.34;71.86;97247.63;1690294;85;21161;-65
2021/01/27 00:28:16;;;;;;;2.77;2.58;;;;;;;-1.30;71.16;97246.55;1690218;85;21145;-66
2021/01/27 00:30:44;;;;;;;4.00;3.62;;;;;;;-1.30;71.16;97246.55;1690317;83;21154;-64
2021/01/27 00:33:16;;;;;;;4.45;3.98;;;;;;;-1.27;71.29;97243.00;1690596;85;21205;-65
2021/01/27 00:36:09;;;;;;;4.58;4.05;;;;;;;-1.24;71.23;97241.55;1690243;85;21188;-65
2021/01/27 00:38:37;;;;;;;4.50;3.35;;;;;;;-1.21;71.06;97244.77;1690438;84;21169;-64
2021/01/27 00:41:06;;;;;;;7.70;4.85;;;;;;;-1.18;71.75;97238.21;1690340;85;21200;-65
2021/01/27 00:43:34;;;;;;;6.75;4.72;;;;;;;-1.15;71.23;97238.48;1690719;85;21464;-64
2021/01/27 00:46:02;;;;;;;4.33;3.45;;;;;;;-1.14;71.28;97232.03;1690630;85;21184;-65
2021/01/27 00:48:30;;;;;;;4.50;3.12;;;;;;;-1.13;71.11;97233.64;1690457;85;21118;-64
2021/01/27 00:50:58;;;;;;;6.50;4.20;;;;;;;-1.13;71.11;97232.38;1690319;85;21169;-64
2021/01/27 00:53:27;;;;;;;4.62;4.20;;;;;;;-1.11;71.05;97222.93;1690300;85;21608;-65
2021/01/27 00:55:55;;;;;;;7.55;3.92;;;;;;;-1.09;71.08;97216.48;1690286;85;21144;-64
2021/01/27 00:58:25;;;;;;;5.17;3.30;;;;;;;-1.08;70.93;97222.75;1690610;83;21161;-65
2021/01/27 01:00:55;;;;;;;4.78;3.33;;;;;;;-1.07;70.90;97224.39;1690449;85;21650;-66
2021/01/27 01:03:25;;;;;;;5.70;3.10;;;;;;;-1.04;71.05;97224.20;1690272;85;21149;-65
2021/01/27 01:05:53;;;;;;;7.87;4.78;;;;;;;-1.02;70.98;97222.41;1690265;83;21283;-64
2021/01/27 01:08:21;;;;;;;2.95;2.50;;;;;;;-1.00;71.23;97215.92;1690498;85;21149;-65
2021/01/27 01:10:54;;;;;;;4.42;3.05;;;;;;;-0.98;70.77;97211.13;1690262;85;21138;-64
2021/01/27 01:13:25;;;;;;;5.22;3.50;;;;;;;-0.99;71.08;97189.54;1690423;85;21225;-63
2021/01/27 01:15:55;;;;;;;3.85;2.20;;;;;;;-0.99;71.08;97189.54;1691066;85;21170;-64
2021/01/27 01:18:24;;;;;;;4.37;3.42;;;;;;;-0.94;70.31;97202.84;1690415;83;21577;-64
2021/01/27 01:20:52;;;;;;;4.35;1.87;;;;;;;-0.93;70.53;97200.63;1690410;85;21220;-64
2021/01/27 01:23:22;;;;;;;3.83;3.42;;;;;;;-0.95;70.22;97198.64;1690679;85;21157;-65
2021/01/27 01:25:51;;;;;;;6.83;3.80;;;;;;;-0.98;70.18;97194.56;1690657;85;21569;-64
2021/01/27 01:28:19;;;;;;;2.98;2.10;;;;;;;-1.00;69.92;97189.17;1690445;85;21141;-64
2021/01/27 01:31:08;;;;;;;4.00;3.10;;;;;;;-0.98;70.09;97189.46;1690495;85;21137;-64
2021/01/27 01:33:37;;;;;;;2.27;1.87;;;;;;;-1.04;70.03;97175.80;1736937;82;21168;-64
2021/01/27 01:36:06;;;;;;;5.25;3.85;;;;;;;-1.03;69.92;97163.42;1736661;82;21140;-63
2021/01/27 01:38:34;;;;;;;8.80;4.50;;;;;;;-1.04;69.94;97160.95;1736892;82;21372;-67
2021/01/27 01:41:04;;;;;;;5.62;3.90;;;;;;;-1.10;70.74;97158.78;1737231;81;21373;-74
2021/01/27 01:43:37;;;;;;;8.08;3.83;;;;;;;-1.10;70.74;97158.78;1737037;81;21183;-65
2021/01/27 01:49:09;;;;;;;4.42;3.45;;;;;;;-1.13;71.38;97169.16;1673939;86;21183;-66
2021/01/27 01:52:02;;;;;;;4.10;3.20;;;;;;;-1.18;71.32;97159.69;1641026;87;21190;-67
2021/01/27 01:54:47;;;;;;;4.33;2.42;;;;;;;-1.15;71.19;97158.23;1678952;84;21962;-63
2021/01/27 01:57:28;;;;;;;8.53;3.30;;;;;;;-1.15;71.19;97158.23;1674455;85;21297;-64
2021/01/27 02:00:02;;;;;;;6.22;3.33;;;;;;;-1.21;71.14;97156.05;1675790;84;21214;-64
2021/01/27 02:02:35;;;;;;;5.22;3.83;;;;;;;-1.21;71.14;97156.05;1674354;85;21187;-64
2021/01/27 02:05:08;;;;;;;3.90;2.77;;;;;;;-1.21;71.29;97168.34;1675902;85;21234;-65
2021/01/27 02:07:37;;;;;;;3.70;3.05;;;;;;;-1.27;71.52;97158.49;1675781;84;21607;-66
2021/01/27 02:10:07;;;;;;;3.40;1.85;;;;;;;-1.33;71.61;97165.23;1676019;84;21213;-65
2021/01/27 02:13:06;;;;;;;7.00;3.42;;;;;;;-1.36;72.35;97169.69;1675731;84;21621;-66
2021/01/27 02:16:20;;;;;;;3.05;2.00;;;;;;;-1.38;72.18;97168.48;1675588;85;21798;-64
2021/01/27 02:19:23;;;;;;;2.92;2.60;;;;;;;-1.37;72.28;97167.59;1675958;85;21174;-66
2021/01/27 02:22:42;;;;;;;3.12;2.90;;;;;;;-1.35;72.28;97165.76;1675958;84;21616;-65
2021/01/27 02:25:38;;;;;;;5.47;3.85;;;;;;;-1.35;72.14;97167.03;1676015;84;21250;-65
2021/01/27 02:28:17;;;;;;;2.80;2.00;;;;;;;-1.35;71.93;97175.95;1676077;84;21186;-65
2021/01/27 02:31:26;;;;;;;3.35;2.77;;;;;;;-1.34;72.20;97179.31;1675625;85;21440;-65
2021/01/27 02:34:35;;;;;;;3.83;2.45;;;;;;;-1.34;72.30;97176.77;1675924;85;21698;-64
2021/01/27 02:37:08;;;;;;;2.42;2.15;;;;;;;-1.37;71.72;97160.40;1675916;84;21183;-66
2021/01/27 02:39:41;;;;;;;2.05;1.85;;;;;;;-1.38;71.72;97167.66;1675834;84;21190;-69
2021/01/27 02:45:07;;;;;;;5.47;2.80;;;;;;;-1.49;71.63;97175.48;1694807;84;21215;-65
2021/01/27 02:48:13;;;;;;;5.60;2.60;;;;;;;-1.55;72.51;97180.09;1697422;83;21337;-64
2021/01/27 02:50:55;;;;;;;3.83;3.40;;;;;;;-1.59;72.43;97189.63;1679774;85;21145;-66
2021/01/27 02:56:35;;;;;;;2.95;2.15;;;;;;;-1.64;72.44;97187.81;1673212;85;21194;-65
2021/01/27 02:59:11;;;;;;;3.10;2.42;;;;;;;-1.65;71.96;97183.63;1701754;83;21149;-66
2021/01/27 03:01:43;;;;;;;3.72;2.55;;;;;;;-1.66;72.16;97178.16;1709807;82;21208;-65
2021/01/27 03:04:20;;;;;;;2.52;2.08;;;;;;;-1.66;72.11;97180.70;1666482;85;21192;-64
2021/01/27 03:06:51;;;;;;;1.82;1.60;;;;;;;-1.68;71.99;97174.89;1666123;85;21189;-66
2021/01/27 03:09:36;;;;;;;2.02;1.77;;;;;;;-1.72;72.85;97175.97;1709750;82;21313;-64
2021/01/27 03:12:08;;;;;;;5.28;3.02;;;;;;;-1.75;72.86;97171.03;1666541;86;21168;-65
2021/01/27 03:14:36;;;;;;;2.85;2.37;;;;;;;-1.80;72.88;97167.13;1709619;82;21215;-63
2021/01/27 03:17:09;;;;;;;4.80;2.92;;;;;;;-1.84;73.03;97168.20;1665789;85;21644;-69
2021/01/27 03:19:59;;;;;;;1.95;1.85;;;;;;;-1.89;73.21;97172.27;1665864;85;21191;-64
2021/01/27 03:22:45;;;;;;;2.05;1.90;;;;;;;-1.93;72.60;97178.44;1709651;82;21240;-65
2021/01/27 03:25:26;;;;;;;4.95;1.87;;;;;;;-1.99;73.79;97172.42;1665645;86;21609;-65
2021/01/27 03:28:09;;;;;;;3.60;1.92;;;;;;;-2.01;73.38;97185.22;1709320;82;21203;-65
2021/01/27 03:30:38;;;;;;;3.50;2.35;;;;;;;-2.03;73.81;97177.31;1709005;82;21609;-64
2021/01/27 03:33:39;;;;;;;2.95;2.50;;;;;;;-2.04;73.54;97176.94;1665857;85;21274;-65
2021/01/27 03:36:16;;;;;;;2.95;1.95;;;;;;;-2.00;73.80;97180.51;1850078;77;23063;-65
2021/01/27 03:38:51;;;;;;;2.30;1.62;;;;;;;-2.08;73.43;97176.30;1827307;77;21294;-65
2021/01/27 03:41:25;;;;;;;2.65;2.45;;;;;;;-2.08;73.18;97183.92;1827562;77;21519;-65
2021/01/27 03:44:16;;;;;;;2.20;1.95;;;;;;;-2.07;73.08;97184.75;1827280;77;21176;-65
2021/01/27 03:47:01;;;;;;;0.90;0.90;;;;;;;-2.07;73.24;97184.75;1827534;77;21353;-64
2021/01/27 03:49:41;;;;;;;2.25;1.77;;;;;;;-2.09;73.20;97189.91;1827585;77;21287;-65
2021/01/27 03:52:20;;;;;;;3.83;3.52;;;;;;;-2.08;73.00;97190.73;1827496;77;21143;-65
2021/01/27 03:55:00;;;;;;;2.62;2.42;;;;;;;-2.09;73.25;97196.72;1827238;77;21121;-63
2021/01/27 03:57:36;;;;;;;3.72;2.60;;;;;;;-2.10;73.27;97191.28;1827737;77;21333;-65
2021/01/27 04:03:18;;;;;;;2.83;1.92;;;;;;;-2.11;74.26;97196.81;1686365;84;21179;-65
2021/01/27 04:05:49;;;;;;;3.83;2.58;;;;;;;-2.08;74.09;97190.73;1686730;84;21546;-65
2021/01/27 04:08:17;;;;;;;3.02;2.27;;;;;;;-2.06;74.35;97182.55;1686625;84;21143;-64
2021/01/27 04:10:45;;;;;;;2.37;1.85;;;;;;;-2.06;74.45;97183.82;1686685;84;21191;-64
2021/01/27 04:13:14;;;;;;;2.60;1.98;;;;;;;-2.05;73.68;97176.56;1686558;84;21174;-63
2021/01/27 04:15:42;;;;;;;4.30;3.08;;;;;;;-2.04;73.90;97174.40;1686525;84;21159;-64
2021/01/27 04:18:10;;;;;;;2.85;2.33;;;;;;;-2.04;73.77;97179.04;1686683;84;21226;-68
2021/01/27 04:20:39;;;;;;;2.58;2.08;;;;;;;-2.04;74.12;97177.77;1686841;84;21198;-65
2021/01/27 04:23:07;;;;;;;3.50;1.27;;;;;;;-2.03;74.56;97179.86;1686356;84;21215;-65
2021/01/27 04:25:35;;;;;;;2.62;2.08;;;;;;;-2.06;74.36;97187.19;1686386;84;21155;-64
2021/01/27 04:28:04;;;;;;;2.30;1.92;;;;;;;-2.09;73.93;97182.72;1686500;84;21212;-63
2021/01/27 04:30:35;;;;;;;2.35;1.62;;;;;;;-2.08;74.38;97186.91;1686594;84;21170;-65
2021/01/27 04:33:08;;;;;;;1.42;1.30;;;;;;;-2.09;74.35;97182.72;1686399;84;21206;-66
2021/01/27 04:35:37;;;;;;;2.52;1.42;;;;;;;-2.10;74.28;97184.45;1686276;84;21195;-65
2021/01/27 04:38:06;;;;;;;3.00;2.70;;;;;;;-2.09;73.74;97182.27;1686625;84;21559;-65
2021/01/27 04:40:45;;;;;;;2.33;2.12;;;;;;;-2.07;74.10;97186.02;1687128;84;21187;-64
2021/01/27 04:43:21;;;;;;;1.67;1.57;;;;;;;-2.08;74.16;97186.91;1687275;84;21170;-64
2021/01/27 04:46:04;;;;;;;;;;;;;;;-2.10;73.94;97186.98;1689601;84;21591;-66
2021/01/27 04:49:05;;;;;;;2.00;1.62;;;;;;;-2.11;74.04;97182.83;1674222;84;20245;-65
2021/01/27 04:52:05;;;;;;;1.52;1.42;;;;;;;-2.13;73.88;97187.61;1704806;83;21201;-69
2021/01/27 04:55:05;;;;;;;1.40;1.30;;;;;;;-2.17;73.48;97181.05;1670631;85;21185;-64
2021/01/27 04:57:48;;;;;;;3.80;1.30;;;;;;;-2.21;73.57;97179.13;1676574;85;21202;-65
2021/01/27 05:00:45;;;;;;;3.87;2.50;;;;;;;-2.23;73.99;97180.95;1676872;85;21201;-65
2021/01/27 05:03:44;;;;;;;1.47;1.30;;;;;;;-2.25;74.16;97175.56;1692702;84;21321;-65
2021/01/27 05:06:27;;;;;;;3.15;2.58;;;;;;;-2.21;73.63;97178.30;1824499;77;23019;-70
2021/01/27 05:09:16;;;;;;;2.60;2.40;;;;;;;-2.27;73.37;97179.92;1827646;78;21666;-65
2021/01/27 05:11:45;;;;;;;2.50;1.60;;;;;;;-2.29;73.66;97175.36;1827474;78;21273;-65
2021/01/27 05:14:17;;;;;;;3.02;1.92;;;;;;;-2.31;73.90;97178.45;1827665;78;21155;-67
2021/01/27 05:16:49;;;;;;;1.85;1.67;;;;;;;-2.33;74.18;97174.70;1827892;78;21286;-66
2021/01/27 05:19:18;;;;;;;2.60;1.80;;;;;;;-2.35;74.28;97166.36;1828397;78;21242;-67
2021/01/27 05:21:53;;;;;;;3.85;3.27;;;;;;;-2.37;73.68;97168.63;1805325;78;21270;-66
2021/01/27 05:24:22;;;;;;;1.67;1.57;;;;;;;-2.40;74.08;97169.59;1767205;80;21096;-66
2021/01/27 05:27:01;;;;;;;1.95;1.75;;;;;;;-2.42;73.94;97174.77;1795841;80;21151;-65
2021/01/27 05:29:47;;;;;;;4.05;2.33;;;;;;;-2.42;74.04;97172.23;1795720;80;21210;-64
2021/01/27 05:32:19;;;;;;;1.98;1.00;;;;;;;-2.45;74.14;97176.62;1742857;82;21293;-65
2021/01/27 05:34:51;;;;;;;3.22;2.00;;;;;;;-2.43;73.76;97183.30;1761572;81;21158;-66
2021/01/27 05:37:34;;;;;;;1.32;1.07;;;;;;;-2.42;73.94;97184.12;1757417;81;21151;-71
2021/01/27 05:40:16;;;;;;;6.12;1.77;;;;;;;-2.41;74.30;97187.01;1744559;81;21645;-66
2021/01/27 05:42:45;;;;;;;4.45;3.35;;;;;;;-2.40;73.79;97189.92;1752691;81;21170;-65
2021/01/27 05:45:30;;;;;;;1.30;1.27;;;;;;;-2.41;74.02;97174.30;1752095;81;21150;-68
2021/01/27 05:48:30;;;;;;;6.10;2.47;;;;;;;-2.43;73.49;97177.39;1748524;81;21583;-65
2021/01/27 05:51:18;;;;;;;2.08;1.42;;;;;;;-2.45;73.60;97178.73;1757417;81;21566;-66
2021/01/27 05:53:46;;;;;;;2.33;1.35;;;;;;;-2.48;73.36;97172.55;1752753;81;21175;-70
2021/01/27 05:56:27;;;;;;;3.17;2.87;;;;;;;-2.51;73.50;97177.80;1744301;82;21143;-65
2021/01/27 05:59:01;;;;;;;4.80;3.15;;;;;;;-2.55;74.67;97172.95;1715826;81;21168;-65
2021/01/27 06:01:42;;;;;;;3.05;2.17;;;;;;;-2.57;73.83;97176.84;1744516;81;21560;-65
2021/01/27 06:04:17;;;;;;;3.12;1.75;;;;;;;-2.58;74.03;97182.84;1670237;84;21184;-64
2021/01/27 06:06:51;;;;;;;4.70;2.55;;;;;;;-2.59;74.30;97185.01;1606666;88;21189;-65
2021/01/27 06:12:30;;;;;;;12.20;7.37;;;;;;;-2.55;74.09;97185.22;1608767;89;21196;-67
2021/01/27 06:15:10;;;;;;;5.33;3.58;;;;;;;-2.64;75.71;97197.13;1634283;88;21287;-65
2021/01/27 06:18:07;;;;;;;3.12;1.52;;;;;;;-2.60;75.30;97197.78;1635598;88;21203;-65
2021/01/27 06:20:35;;;;;;;;;;;;;;;-2.59;74.84;97201.53;1697701;84;21270;-65
2021/01/27 06:23:47;;;;;;;1.92;1.72;;;;;;;-2.56;75.07;97198.82;1696487;84;20212;-65
2021/01/27 06:26:44;;;;;;;1.55;1.45;;;;;;;-2.53;74.95;97206.27;1696727;84;21215;-64
2021/01/27 06:29:34;;;;;;;1.95;1.77;;;;;;;-2.48;74.40;97200.95;1652608;86;21410;-65
2021/01/27 06:35:36;;;;;;;2.50;2.30;;;;;;;-2.50;75.40;97207.86;1675620;83;21652;-66
2021/01/27 06:38:31;;;;;;;5.35;3.65;;;;;;;-2.44;75.03;97212.16;1721988;83;21306;-65
2021/01/27 06:41:32;;;;;;;3.72;1.37;;;;;;;-2.39;74.74;97206.83;1713907;83;21227;-64
2021/01/27 06:44:39;;;;;;;2.00;1.70;;;;;;;-2.32;74.18;97211.95;1700382;83;21172;-65
2021/01/27 06:47:28;;;;;;;1.62;1.50;;;;;;;-2.27;73.34;97207.89;1705208;83;21313;-64
2021/01/27 06:50:28;;;;;;;2.40;2.12;;;;;;;-2.23;74.08;97211.91;1703386;83;21152;-65
2021/01/27 06:53:05;;;;;;;2.45;2.27;;;;;;;-2.20;74.10;97216.38;1695942;84;21157;-66
2021/01/27 06:56:01;;;;;;;1.07;1.02;;;;;;;-2.18;74.50;97229.83;1695086;85;21178;-65
2021/01/27 06:59:13;;;;;;;1.50;1.27;;;;;;;-2.14;74.18;97222.88;1701178;84;21208;-65
2021/01/27 07:02:15;;;;;;;5.15;2.15;;;;;;;-2.06;73.60;97218.16;1667210;86;21176;-64
2021/01/27 07:05:24;;;;;;;6.22;2.47;;;;;;;-1.96;73.44;97220.59;1667252;86;21152;-65
2021/01/27 07:08:24;;;;;;;2.37;2.22;;;;;;;-1.86;73.06;97221.71;1731347;82;21163;-66
2021/01/27 07:11:01;;;;;;;9.10;7.33;;;;;;;-1.80;74.64;97221.39;1727400;82;21148;-66
2021/01/27 07:13:42;;;;;;;10.78;6.55;;;;;;;-1.71;74.56;97223.41;1728670;82;21151;-66
2021/01/27 07:16:15;;;;;;;19.25;13.18;;;;;;;-1.63;74.37;97213.62;1731328;82;21469;-66
2021/01/27 07:19:07;;;;;;;11.10;7.72;;;;;;;-1.53;74.41;97215.20;1709164;82;21166;-65
2021/01/27 07:21:55;;;;;;;4.17;2.72;;;;;;;-1.41;77.05;97219.61;1731332;82;21146;-64
2021/01/27 07:24:29;;;;;;;2.90;2.60;;;;;;;-1.23;78.22;97222.81;1731090;83;21115;-64
2021/01/27 07:27:32;;;;;;;3.80;3.12;;;;;;;-1.04;77.00;97225.93;1731324;83;21174;-64
2021/01/27 07:30:06;;;;;;;2.40;2.20;;;;;;;-0.98;75.33;97216.67;1673890;85;21254;-64
2021/01/27 07:32:42;;;;;;;1.60;1.50;;;;;;;-0.80;75.67;97213.48;1694958;84;21151;-63
2021/01/27 07:35:34;;;;;;;4.05;2.67;;;;;;;-0.60;75.66;97213.11;1682663;85;21185;-64
2021/01/27 07:38:13;;;;;;;3.45;2.40;;;;;;;-0.40;74.47;97217.83;1662220;86;21648;-65
2021/01/27 07:41:09;;;;;;;2.22;1.75;;;;;;;-0.36;71.97;97210.80;1662303;86;21183;-65
2021/01/27 07:44:00;;;;;;;3.33;1.82;;;;;;;-0.36;71.70;97212.91;1662347;85;21299;-67
2021/01/27 07:46:43;;;;;;;3.65;2.80;;;;;;;-0.46;71.04;97200.33;1644154;86;21616;-66
2021/01/27 07:49:15;;;;;;;4.15;2.87;;;;;;;-0.45;70.85;97200.70;1668866;85;21164;-66
2021/01/27 07:52:37;;;;;;;2.55;1.25;;;;;;;-0.52;70.65;97198.98;1669142;85;21203;-64
2021/01/27 07:55:22;;;;;;;2.02;1.80;;;;;;;-0.55;70.69;97194.08;1641023;87;21679;-65
2021/01/27 07:58:04;;;;;;;3.33;2.33;;;;;;;-0.60;70.90;97205.00;1639453;87;21194;-66
2021/01/27 08:00:58;;;;;;;3.92;2.42;;;;;;;-0.62;71.21;97204.27;1639911;87;21158;-65
2021/01/27 08:03:45;;;;;;;4.25;3.25;;;;;;;-0.76;71.41;97206.01;1639918;87;21236;-65
2021/01/27 08:06:21;;;;;;;2.10;1.95;;;;;;;-0.76;71.41;97206.01;1591543;87;21219;-66
2021/01/27 08:09:02;;;;;;;16.27;9.63;;;;;;;-0.73;71.00;97208.37;1640265;87;21184;-66
2021/01/27 08:11:41;;;;;;;17.95;11.48;;;;;;;-0.73;72.10;97216.02;1640069;87;21605;-67
2021/01/27 08:14:32;;;;;;;8.33;5.45;;;;;;;-0.73;72.13;97218.12;1640162;87;21254;-65
2021/01/27 08:17:06;;;;;;;3.98;2.80;;;;;;;-0.69;72.29;97221.30;1684236;85;21182;-68
2021/01/27 08:19:35;;;;;;;6.17;2.67;;;;;;;-0.66;71.44;97230.06;1680216;84;21333;-65
2021/01/27 08:22:05;;;;;;;2.60;2.25;;;;;;;-0.62;71.46;97227.21;1684261;85;21215;-65
2021/01/27 08:24:41;;;;;;;5.90;3.58;;;;;;;-0.56;71.48;97231.14;1684330;85;21175;-66
2021/01/27 08:27:18;;;;;;;3.17;2.47;;;;;;;-0.50;71.35;97229.03;1684596;85;21364;-66
2021/01/27 08:30:05;;;;;;;2.42;1.77;;;;;;;-0.46;70.94;97227.11;1684671;85;21167;-67
2021/01/27 08:32:43;;;;;;;2.85;1.50;;;;;;;-0.34;70.55;97223.81;1684387;85;21170;-66
2021/01/27 08:35:38;;;;;;;4.45;1.35;;;;;;;-0.21;69.58;97222.16;1684506;85;21215;-67
2021/01/27 08:38:29;;;;;;;1.02;0.70;;;;;;;-0.13;68.31;97214.03;1650899;86;21164;-67
2021/01/27 08:40:58;;;;;;;2.25;0.88;;;;;;;-0.06;67.81;97218.66;1650909;85;21187;-66
2021/01/27 08:43:31;;;;;;;2.20;1.75;;;;;;;0.06;68.25;97217.52;1650901;87;21207;-66
2021/01/27 08:46:26;;;;;;;1.87;1.12;;;;;;;0.17;67.65;97219.77;1651069;86;21178;-70
2021/01/27 08:48:55;;;;;;;1.17;1.07;;;;;;;0.29;67.05;97228.38;1648569;87;21184;-66
2021/01/27 08:51:46;;;;;;;1.77;1.12;;;;;;;0.38;66.49;97219.69;1650751;85;21195;-66
2021/01/27 08:54:37;;;;;;;1.75;1.15;;;;;;;0.53;66.00;97214.50;1650651;86;21171;-65
2021/01/27 08:57:29;;;;;;;2.92;1.15;;;;;;;0.68;65.13;97213.50;1649978;87;21667;-66
2021/01/27 09:00:15;;;;;;;0.65;0.65;;;;;;;0.92;65.01;97210.63;1651022;87;21613;-65
2021/01/27 09:03:02;;;;;;;3.47;0.88;;;;;;;1.11;64.01;97203.36;1649607;86;21198;-66
2021/01/27 09:05:37;;;;;;;;;;;;;;;1.39;63.87;97206.97;1671001;86;21167;-66
2021/01/27 09:08:14;;;;;;;0.70;0.70;;;;;;;1.55;62.70;97206.74;1650917;87;20517;-69
2021/01/27 09:11:08;;;;;;;29.37;12.85;;;;;;;1.59;62.53;97203.05;1665252;86;21557;-66
2021/01/27 09:13:43;;;;;;;39.85;21.33;;;;;;;1.75;63.76;97202.80;1674789;86;21227;-69
2021/01/27 09:16:23;;;;;;;3.98;2.27;;;;;;;1.95;62.91;97198.82;1675199;86;21186;-69
2021/01/27 09:19:16;;;;;;;1.87;0.80;;;;;;;2.16;61.65;97199.41;1688249;85;21594;-71
2021/01/27 09:22:02;;;;;;;1.45;1.15;;;;;;;2.36;60.38;97181.33;1674065;85;21222;-70
2021/01/27 09:24:43;;;;;;;2.85;1.35;;;;;;;2.60;60.48;97169.77;1687100;85;21164;-68
2021/01/27 09:27:19;;;;;;;1.45;1.25;;;;;;;2.81;60.57;97171.55;1664871;86;21183;-66
2021/01/27 09:30:02;;;;;;;2.08;1.37;;;;;;;3.01;58.66;97166.67;1664994;85;21195;-66
2021/01/27 09:32:32;;;;;;;2.00;0.95;;;;;;;3.23;59.04;97163.64;1660563;86;21210;-66
2021/01/27 09:35:14;;;;;;;3.10;1.70;;;;;;;3.56;58.94;97165.84;1666050;86;21226;-66
2021/01/27 09:38:07;;;;;;;1.45;1.20;;;;;;;3.80;58.94;97168.63;1666318;85;21623;-67
2021/01/27 09:40:59;;;;;;;3.22;1.40;;;;;;;4.12;57.68;97178.93;1688549;85;21601;-66
2021/01/27 09:43:36;;;;;;;2.30;1.60;;;;;;;4.38;57.44;97163.98;1639793;87;21232;-66
2021/01/27 09:46:21;;;;;;;1.95;1.05;;;;;;;4.61;56.81;97158.25;1631236;88;21187;-66
2021/01/27 09:48:58;;;;;;;2.03;1.00;;;;;;;4.76;57.73;97155.24;1640155;87;21162;-66
2021/01/27 09:51:27;;;;;;;2.65;1.42;;;;;;;4.84;54.60;97152.50;1632655;88;21193;-66
2021/01/27 09:54:02;;;;;;;3.58;1.67;;;;;;;4.83;51.33;97163.73;1659518;85;21635;-66
2021/01/27 09:56:31;;;;;;;1.65;1.10;;;;;;;4.95;53.63;97163.53;1659734;86;21227;-66
2021/01/27 09:59:02;;;;;;;2.00;1.32;;;;;;;4.94;53.58;97156.75;1695509;85;21211;-66
2021/01/27 10:01:33;;;;;;;2.67;1.47;;;;;;;5.01;54.61;97154.04;1695499;85;21179;-66
2021/01/27 10:04:12;;;;;;;1.07;0.82;;;;;;;4.99;52.95;97152.05;1695388;85;21592;-66
2021/01/27 10:10:15;;;;;;;2.15;1.60;;;;;;;4.78;52.50;97156.41;1673779;84;21718;-66
2021/01/27 10:12:45;;;;;;;2.98;1.47;;;;;;;4.57;52.28;97156.88;1675779;84;21219;-67
2021/01/27 10:15:32;;;;;;;3.62;1.32;;;;;;;4.47;52.73;97167.11;1647147;86;21200;-67
2021/01/27 10:21:05;;;;;;;1.92;1.27;;;;;;;4.19;53.85;97158.23;1663027;85;21251;-68
2021/01/27 10:23:39;;;;;;;2.08;1.00;;;;;;;3.97;52.12;97152.35;1656849;86;21184;-66
2021/01/27 10:26:40;;;;;;;2.47;1.40;;;;;;;3.81;53.10;97153.53;1656080;87;21623;-66
2021/01/27 10:29:23;;;;;;;0.95;0.75;;;;;;;3.75;53.87;97156.59;1656537;87;21157;-66
2021/01/27 10:31:55;;;;;;;2.42;1.92;;;;;;;3.75;54.16;97147.61;1656773;87;21196;-71
2021/01/27 10:34:40;;;;;;;1.45;1.12;;;;;;;3.79;50.92;97140.48;1657015;87;21229;-66
2021/01/27 10:37:37;;;;;;;10.90;1.35;;;;;;;3.96;51.90;97152.00;1656706;86;21213;-67
2021/01/27 10:40:29;;;;;;;2.02;1.00;;;;;;;4.24;52.67;97150.94;1602038;88;21221;-66
2021/01/27 10:43:05;;;;;;;1.07;0.70;;;;;;;4.56;51.11;97147.05;1652542;87;21165;-66
2021/01/27 10:45:42;;;;;;;1.87;1.10;;;;;;;4.81;51.94;97148.91;1655675;86;21230;-67
2021/01/27 10:48:20;;;;;;;1.95;0.85;;;;;;;4.99;48.86;97139.65;1656462;87;21209;-67
2021/01/27 10:51:05;;;;;;;1.07;0.90;;;;;;;5.21;48.90;97140.29;1663110;85;21231;-66
2021/01/27 10:53:43;;;;;;;0.72;0.62;;;;;;;5.49;47.26;97144.38;1661461;85;21183;-67
2021/01/27 10:56:15;;;;;;;1.52;0.95;;;;;;;5.86;50.70;97131.30;1663098;86;21183;-66
2021/01/27 10:58:43;;;;;;;2.02;0.95;;;;;;;6.20;48.33;97129.14;1635021;87;21243;-66
2021/01/27 11:01:11;;;;;;;3.12;1.07;;;;;;;6.55;49.01;97137.61;1663099;85;21148;-67
2021/01/27 11:03:40;;;;;;;0.78;0.65;;;;;;;6.93;47.03;97136.23;1634879;87;21188;-66
2021/01/27 11:06:31;;;;;;;2.52;1.05;;;;;;;7.30;46.03;97141.91;1662860;85;21183;-67
2021/01/27 11:08:59;;;;;;;2.17;1.25;;;;;;;7.63;45.05;97130.98;1651591;85;21212;-66
2021/01/27 11:11:31;;;;;;;0.98;0.82;;;;;;;7.87;43.60;97131.26;1651650;86;21570;-68
2021/01/27 11:14:00;;;;;;;1.82;1.07;;;;;;;7.99;44.57;97139.14;1651637;87;21260;-67
2021/01/27 11:16:30;;;;;;;2.02;1.35;;;;;;;7.72;42.29;97135.30;1651480;87;21471;-66
2021/01/27 11:18:59;;;;;;;1.72;0.98;;;;;;;7.59;44.15;97141.28;1651569;87;21658;-66
2021/01/27 11:21:27;;;;;;;1.95;1.35;;;;;;;7.53;44.22;97138.81;1651862;85;21196;-66
2021/01/27 11:23:56;;;;;;;2.67;1.05;;;;;;;7.23;43.60;97136.50;1651640;85;21165;-66
2021/01/27 11:26:25;;;;;;;1.70;1.25;;;;;;;6.81;42.88;97134.77;1651546;87;21200;-67
2021/01/27 11:28:54;;;;;;;2.90;1.52;;;;;;;6.38;44.35;97130.08;1651570;87;21180;-67
2021/01/27 11:31:38;;;;;;;4.17;1.52;;;;;;;6.04;44.73;97142.56;1705328;83;21215;-66
2021/01/27 11:34:06;;;;;;;3.80;2.12;;;;;;;5.75;44.45;97136.55;1704445;83;21410;-66
2021/01/27 11:36:35;;;;;;;2.52;1.65;;;;;;;5.45;44.61;97131.43;1686627;85;21635;-66
2021/01/27 11:39:07;;;;;;;2.92;1.45;;;;;;;5.23;45.79;97130.70;1704516;83;21218;-66
2021/01/27 11:41:38;;;;;;;2.65;1.35;;;;;;;5.18;46.31;97130.26;1704421;83;21187;-66
2021/01/27 11:44:09;;;;;;;1.77;1.27;;;;;;;5.29;47.24;97120.36;1704337;83;21207;-66
2021/01/27 11:46:37;;;;;;;2.27;1.00;;;;;;;5.65;47.06;97113.33;1704579;83;21167;-66
2021/01/27 11:49:06;;;;;;;3.00;1.17;;;;;;;5.69;43.75;97113.88;1704329;83;21195;-66
2021/01/27 11:51:34;;;;;;;2.58;1.20;;;;;;;5.62;45.86;97123.91;1702869;84;21592;-66
2021/01/27 11:54:02;;;;;;;3.52;1.60;;;;;;;5.31;44.19;97108.16;1704712;84;21250;-67
2021/01/27 11:56:30;;;;;;;2.85;1.42;;;;;;;5.11;44.67;97103.88;1686825;85;21633;-66
2021/01/27 11:58:59;;;;;;;2.30;1.27;;;;;;;5.05;46.40;97102.66;1704294;83;21219;-67
2021/01/27 12:01:31;;;;;;;2.10;1.15;;;;;;;5.09;44.38;97103.22;1704545;84;21259;-67
2021/01/27 12:04:00;;;;;;;1.82;0.93;;;;;;;4.94;44.51;97114.30;1686870;85;21180;-65
2021/01/27 12:06:29;;;;;;;2.70;1.27;;;;;;;4.82;46.03;97112.78;1703798;83;21151;-66
2021/01/27 12:08:57;;;;;;;1.80;1.22;;;;;;;4.82;46.87;97118.39;1707009;83;21173;-67
2021/01/27 12:11:25;;;;;;;2.90;1.60;;;;;;;4.86;46.27;97123.16;1672053;85;21208;-68
2021/01/27 12:13:54;;;;;;;2.20;1.40;;;;;;;4.79;46.05;97118.16;1706665;83;21198;-67
2021/01/27 12:16:22;;;;;;;2.52;1.10;;;;;;;4.77;44.43;97122.63;1680480;83;21235;-66
2021/01/27 12:18:51;;;;;;;3.02;1.07;;;;;;;4.96;46.03;97118.05;1727203;83;21611;-66
2021/01/27 12:21:20;;;;;;;2.75;1.57;;;;;;;4.85;45.99;97125.84;1734775;83;21211;-66
2021/01/27 12:23:49;;;;;;;3.50;1.45;;;;;;;4.76;46.73;97119.70;1735011;83;21183;-66
2021/01/27 12:26:17;;;;;;;5.25;1.00;;;;;;;4.58;44.98;97125.91;1735690;83;21230;-66
2021/01/27 12:28:45;;;;;;;2.35;1.20;;;;;;;4.33;45.99;97128.01;1735448;83;21215;-66
2021/01/27 12:31:14;;;;;;;3.98;1.17;;;;;;;4.20;46.77;97135.92;1735069;82;21167;-66
2021/01/27 12:33:44;;;;;;;2.85;1.37;;;;;;;4.07;46.91;97135.26;1735006;83;21226;-66
2021/01/27 12:36:12;;;;;;;1.25;0.75;;;;;;;3.91;47.06;97129.23;1734993;83;21222;-66
2021/01/27 12:41:59;;;;;;;1.17;0.70;;;;;;;3.54;48.06;97141.56;1761084;81;21181;-65
2021/01/27 12:44:29;;;;;;;3.15;1.07;;;;;;;3.32;48.64;97151.41;1758436;81;21187;-65
2021/01/27 12:46:58;;;;;;;1.12;1.02;;;;;;;3.12;48.35;97140.56;1760968;81;21261;-65
2021/01/27 12:49:28;;;;;;;1.00;0.90;;;;;;;2.95;49.33;97141.03;1760857;81;21160;-66
2021/01/27 12:51:57;;;;;;;2.70;1.25;;;;;;;2.78;48.72;97141.02;1760957;81;21216;-70
2021/01/27 12:54:25;;;;;;;1.72;1.20;;;;;;;2.71;49.01;97146.71;1760985;81;21173;-67
2021/01/27 12:56:53;;;;;;;2.30;1.27;;;;;;;2.66;50.31;97143.66;1760925;81;21193;-66